Time;durP1;ratioP1;P1;durP2;ratioP2;P2;SDS_P1;SDS_P2;PMS_P1;PMS_P2;Temp;Humidity;BMP_temperature;BMP_pressure;BME280_temperature;BME280_humidity;BME280_pressure;Samples;Min_cycle;Max_cycle;Signal;HPM_P1;HPM_P2
2024/04/10 15:03:54;;;;;;;18.62;3.75;;;;;;;27.92;38.85;100589.08;1515740;85;28499;-81
2024/04/10 15:06:20;;;;;;;10.82;4.40;;;;;;;27.00;40.57;100603.25;1434941;89;21510;-81
2024/04/10 15:08:46;;;;;;;22.98;4.15;;;;;;;26.34;42.15;100605.01;1431338;91;21591;-81
2024/04/10 15:11:24;;;;;;;8.25;3.98;;;;;;;25.74;43.32;100612.38;1437082;90;22321;-85
2024/04/10 15:13:50;;;;;;;19.37;4.78;;;;;;;25.08;45.30;100622.17;1433204;90;21449;-86
2024/04/10 15:16:19;;;;;;;14.98;4.25;;;;;;;24.67;45.37;100624.00;1436011;90;21634;-85
2024/04/10 15:18:47;;;;;;;16.02;4.70;;;;;;;24.22;46.52;100620.46;1436601;90;21501;-86
2024/04/10 15:21:13;;;;;;;12.75;4.45;;;;;;;23.55;47.51;100622.48;1445000;90;22320;-85
2024/04/10 15:23:40;;;;;;;13.70;4.83;;;;;;;23.24;48.49;100620.80;1440407;90;21434;-86
2024/04/10 15:26:07;;;;;;;14.07;4.85;;;;;;;22.79;48.95;100630.00;1439296;90;21641;-85
2024/04/10 15:28:33;;;;;;;13.08;5.20;;;;;;;22.62;49.59;100634.32;1426292;90;21530;-85
2024/04/10 15:31:05;;;;;;;13.20;4.17;;;;;;;22.34;50.32;100635.59;1437299;90;22441;-85
2024/04/10 15:33:38;;;;;;;14.40;5.72;;;;;;;22.34;50.11;100645.03;1442000;90;22514;-85
2024/04/10 15:36:13;;;;;;;12.13;4.67;;;;;;;22.18;50.75;100647.75;1448317;90;21530;-86
2024/04/10 15:38:41;;;;;;;13.10;4.28;;;;;;;22.15;51.70;100651.36;1437845;90;21494;-86
2024/04/10 15:41:10;;;;;;;12.88;4.72;;;;;;;21.89;51.16;100653.17;1435192;90;22393;-85
2024/04/10 15:43:55;;;;;;;17.48;4.65;;;;;;;21.65;51.58;100655.30;1437443;90;21663;-85
2024/04/10 15:46:21;;;;;;;17.67;4.72;;;;;;;21.07;52.81;100646.17;1452744;90;21411;-85
2024/04/10 15:48:47;;;;;;;15.63;4.65;;;;;;;21.07;52.81;100646.17;1424058;90;21641;-86
2024/04/10 15:51:15;;;;;;;21.87;5.55;;;;;;;21.11;52.91;100651.42;1444222;90;21493;-86
2024/04/10 15:53:42;;;;;;;14.90;6.45;;;;;;;20.88;53.00;100655.10;1447446;90;21574;-84
2024/04/10 15:56:09;;;;;;;26.90;6.12;;;;;;;20.68;53.06;100658.64;1444146;90;21522;-84
2024/04/10 15:58:38;;;;;;;17.02;5.12;;;;;;;20.54;53.89;100665.58;1437649;90;21500;-85
2024/04/10 16:01:07;;;;;;;23.15;6.12;;;;;;;20.17;54.77;100674.02;1444942;90;22550;-85
2024/04/10 16:03:36;;;;;;;17.15;5.10;;;;;;;20.11;54.96;100668.13;1440730;90;21575;-85
2024/04/10 16:06:05;;;;;;;17.40;5.12;;;;;;;20.04;55.90;100680.70;1446446;90;21619;-85
2024/04/10 16:08:31;;;;;;;15.83;5.87;;;;;;;19.95;55.51;100684.09;1443250;90;21516;-85
2024/04/10 16:10:59;;;;;;;16.80;4.53;;;;;;;19.91;55.88;100684.69;1439127;90;21427;-85
2024/04/10 16:13:26;;;;;;;19.92;4.70;;;;;;;19.80;56.41;100689.64;1437813;90;22402;-87
2024/04/10 16:15:52;;;;;;;12.18;4.33;;;;;;;19.71;56.71;100689.51;1440932;90;21463;-85
2024/04/10 16:22:20;;;;;;;12.35;5.72;;;;;;;19.51;58.10;100705.50;1431836;90;22380;-85
2024/04/10 16:24:46;;;;;;;11.30;5.58;;;;;;;19.24;58.66;100715.25;1445182;90;21471;-84
2024/04/10 16:27:15;;;;;;;22.25;5.40;;;;;;;19.06;59.09;100718.45;1437674;90;21961;-85
2024/04/10 16:29:41;;;;;;;13.33;5.57;;;;;;;18.96;59.23;100720.66;1442089;90;21516;-85
2024/04/10 16:32:08;;;;;;;10.67;6.23;;;;;;;18.86;59.48;100727.69;1438109;90;21486;-84
2024/04/10 16:34:34;;;;;;;16.67;7.07;;;;;;;18.70;60.23;100730.61;1439763;90;21633;-85
2024/04/10 16:37:01;;;;;;;14.03;6.37;;;;;;;18.58;60.29;100732.16;1436631;90;21523;-84
2024/04/10 16:39:27;;;;;;;17.53;6.70;;;;;;;18.47;60.80;100741.53;1445622;90;21560;-86
2024/04/10 16:41:53;;;;;;;19.33;8.20;;;;;;;18.34;60.96;100754.31;1448144;90;22509;-85
2024/04/10 16:44:25;;;;;;;18.30;6.57;;;;;;;18.13;61.52;100751.63;1436928;90;22470;-84
2024/04/10 16:46:48;;;;;;;21.07;7.33;;;;;;;18.00;61.47;100755.78;1429563;90;21493;-84
2024/04/10 16:49:14;;;;;;;13.90;7.20;;;;;;;17.87;61.92;100756.98;1441618;90;21545;-85
2024/04/10 16:51:42;;;;;;;11.57;6.67;;;;;;;17.74;63.04;100759.45;1435351;90;22277;-85
2024/04/10 16:54:08;;;;;;;11.13;6.47;;;;;;;17.61;63.26;100758.78;1439367;90;21493;-85
2024/04/10 16:56:34;;;;;;;9.07;6.40;;;;;;;17.57;63.82;100759.64;1438087;90;22286;-84
2024/04/10 16:59:00;;;;;;;15.60;6.63;;;;;;;17.43;64.53;100756.45;1435881;90;21390;-84
2024/04/10 17:01:26;;;;;;;15.00;7.47;;;;;;;17.31;65.23;100758.77;1449193;90;21553;-85
2024/04/10 17:03:52;;;;;;;7.67;5.83;;;;;;;17.29;65.06;100765.30;1443485;90;21494;-86
2024/04/10 17:06:19;;;;;;;12.83;6.47;;;;;;;17.24;65.38;100765.87;1446600;90;21500;-85
2024/04/10 17:08:45;;;;;;;16.20;7.33;;;;;;;17.13;65.14;100767.66;1437523;90;21464;-84
2024/04/10 17:11:16;;;;;;;13.40;6.10;;;;;;;16.99;66.18;100769.80;1419772;90;22568;-85
2024/04/10 17:13:43;;;;;;;13.33;6.83;;;;;;;16.90;66.21;100773.05;1441972;90;21508;-87
2024/04/10 17:16:10;;;;;;;15.83;6.87;;;;;;;16.77;66.93;100778.16;1437633;90;21404;-85
2024/04/10 17:24:13;;;;;;;17.27;6.53;;;;;;;16.50;67.77;100787.02;1441884;90;22951;-87
2024/04/10 17:26:41;;;;;;;12.37;5.90;;;;;;;16.43;67.89;100796.77;1434200;90;21472;-84
2024/04/10 17:29:07;;;;;;;10.47;5.77;;;;;;;16.27;68.88;100800.86;1439445;90;21571;-83
2024/04/10 17:31:34;;;;;;;14.77;6.97;;;;;;;16.19;68.83;100805.73;1440185;90;22536;-83
2024/04/10 17:34:00;;;;;;;13.03;5.87;;;;;;;16.13;68.71;100809.92;1445994;90;21523;-82
2024/04/10 17:36:26;;;;;;;17.87;6.73;;;;;;;16.02;68.86;100812.98;1437705;90;21441;-82
2024/04/10 17:38:52;;;;;;;22.83;7.63;;;;;;;15.96;69.79;100826.52;1442724;90;21633;-82
2024/04/10 17:41:19;;;;;;;12.37;7.37;;;;;;;15.93;69.21;100828.20;1439290;90;21398;-85
2024/04/10 17:43:45;;;;;;;19.97;6.57;;;;;;;15.87;69.86;100831.56;1430979;90;22416;-84
2024/04/10 17:46:11;;;;;;;12.73;6.33;;;;;;;15.83;70.21;100835.59;1445856;90;21457;-86
2024/04/10 17:48:39;;;;;;;15.27;7.43;;;;;;;15.75;70.41;100841.78;1437542;90;21389;-85
2024/04/10 17:51:14;;;;;;;14.97;7.03;;;;;;;15.65;71.06;100850.47;1438967;90;21419;-84
2024/04/10 17:53:43;;;;;;;13.97;5.47;;;;;;;15.62;71.18;100861.95;1446743;90;22512;-86
2024/04/10 17:56:18;;;;;;;23.23;7.27;;;;;;;15.60;71.25;100870.65;1423847;90;21588;-86
2024/04/10 17:58:49;;;;;;;16.93;8.00;;;;;;;15.55;71.27;100877.31;1435958;90;21396;-84
2024/04/10 18:01:16;;;;;;;14.68;6.00;;;;;;;15.49;71.84;100885.16;1427086;90;21656;-86
2024/04/10 18:03:47;;;;;;;12.43;6.70;;;;;;;15.43;71.81;100891.17;1442159;90;22244;-83
2024/04/10 18:06:13;;;;;;;15.47;6.13;;;;;;;15.43;72.15;100900.52;1435220;90;22935;-85
2024/04/10 18:08:41;;;;;;;12.20;7.03;;;;;;;15.38;71.78;100911.67;1445679;90;21559;-84
2024/04/10 18:11:09;;;;;;;20.10;7.10;;;;;;;15.35;72.05;100911.50;1423524;90;21627;-82
2024/04/10 18:13:41;;;;;;;9.40;5.57;;;;;;;15.28;72.22;100918.52;1445156;90;21700;-85
2024/04/10 18:16:07;;;;;;;21.70;6.67;;;;;;;15.31;72.05;100930.18;1436800;90;21685;-84
2024/04/10 18:18:34;;;;;;;9.67;5.83;;;;;;;15.28;71.46;100927.84;1443463;90;22436;-84
2024/04/10 18:21:04;;;;;;;14.10;7.00;;;;;;;15.26;71.60;100937.84;1448252;90;21524;-83
2024/04/10 18:23:35;;;;;;;15.83;7.13;;;;;;;15.25;71.76;100940.69;1448286;90;21509;-84
2024/04/10 18:26:04;;;;;;;12.43;6.70;;;;;;;15.22;71.48;100945.84;1438571;90;21471;-85
2024/04/10 18:28:34;;;;;;;19.33;6.53;;;;;;;15.14;72.12;100949.83;1438488;90;21508;-84
2024/04/10 18:31:09;;;;;;;18.70;6.40;;;;;;;15.15;71.64;100955.48;1443918;90;21649;-84
2024/04/10 18:33:38;;;;;;;13.87;5.70;;;;;;;15.13;71.87;100960.14;1437751;90;22336;-83
2024/04/10 18:36:08;;;;;;;26.57;7.50;;;;;;;15.06;72.16;100963.14;1439051;90;21663;-85
2024/04/10 18:38:36;;;;;;;12.88;6.05;;;;;;;15.07;71.85;100959.47;1447371;90;22032;-84
2024/04/10 18:41:07;;;;;;;16.60;6.00;;;;;;;15.01;72.06;100962.79;1441180;90;21670;-83
2024/04/10 18:43:35;;;;;;;12.33;5.97;;;;;;;15.02;71.83;100965.31;1428470;90;21515;-84
2024/04/10 18:46:06;;;;;;;11.80;5.60;;;;;;;14.96;72.10;100968.63;1443008;90;21589;-85
2024/04/10 18:48:35;;;;;;;11.77;5.67;;;;;;;14.96;71.92;100971.77;1437404;90;22616;-83
2024/04/10 18:51:19;;;;;;;15.07;5.57;;;;;;;14.84;71.97;100962.74;1432131;90;21479;-83
2024/04/10 18:53:50;;;;;;;13.50;5.30;;;;;;;14.86;71.79;100976.75;1439838;90;21552;-83
2024/04/10 18:56:19;;;;;;;15.28;5.80;;;;;;;14.79;71.60;100975.73;1441465;90;21685;-84
2024/04/10 18:58:46;;;;;;;15.33;6.13;;;;;;;14.78;71.57;100979.37;1444564;90;21545;-83
2024/04/10 19:01:14;;;;;;;11.67;5.63;;;;;;;14.77;71.66;100984.89;1439506;90;21485;-84
2024/04/10 19:03:41;;;;;;;15.50;5.73;;;;;;;14.78;71.31;100990.04;1436725;90;21426;-83
2024/04/10 19:06:11;;;;;;;17.27;5.20;;;;;;;14.73;71.47;100987.05;1434775;90;21670;-83
2024/04/10 19:08:40;;;;;;;9.03;5.33;;;;;;;14.70;71.37;100990.00;1446799;90;21479;-84
2024/04/10 19:11:07;;;;;;;17.13;5.57;;;;;;;14.66;71.42;100993.50;1441427;90;21554;-85
2024/04/10 19:13:35;;;;;;;17.60;6.53;;;;;;;14.68;71.36;100989.36;1442207;90;21633;-86
2024/04/10 19:16:03;;;;;;;11.30;5.30;;;;;;;14.64;71.27;100994.65;1441795;90;22469;-82
2024/04/10 19:18:31;;;;;;;13.20;5.50;;;;;;;14.64;71.10;100997.31;1441839;90;21476;-84
2024/04/10 19:21:00;;;;;;;14.20;5.93;;;;;;;14.64;70.88;101003.50;1438542;90;21707;-84
2024/04/10 19:23:28;;;;;;;19.10;7.43;;;;;;;14.59;71.08;101018.29;1437249;90;21886;-83
2024/04/10 19:25:59;;;;;;;12.83;4.77;;;;;;;14.61;71.15;101010.95;1434541;90;22352;-83
2024/04/10 19:28:28;;;;;;;22.23;5.93;;;;;;;14.57;71.05;101017.10;1434773;90;21600;-83
2024/04/10 19:31:02;;;;;;;14.87;5.00;;;;;;;14.56;71.04;101025.27;1445534;90;21442;-83
2024/04/10 19:33:29;;;;;;;21.80;6.77;;;;;;;14.53;71.07;101028.22;1440565;90;21559;-84
2024/04/10 19:36:09;;;;;;;13.23;5.80;;;;;;;14.56;70.84;101030.09;1421048;90;22485;-82
2024/04/10 19:38:38;;;;;;;14.95;4.78;;;;;;;14.54;70.67;101031.24;1447688;90;21502;-82
2024/04/10 19:41:09;;;;;;;13.60;6.33;;;;;;;14.45;70.95;101031.16;1434008;91;21820;-83
2024/04/10 19:43:45;;;;;;;17.10;6.80;;;;;;;14.39;71.38;101037.63;1436008;91;21552;-82
2024/04/10 19:46:15;;;;;;;12.10;5.23;;;;;;;14.41;71.00;101047.13;1432345;91;21426;-84
2024/04/10 19:48:42;;;;;;;14.70;6.50;;;;;;;14.40;70.99;101041.95;1438184;91;21456;-83
2024/04/10 19:51:10;;;;;;;17.33;5.90;;;;;;;14.43;70.95;101061.10;1438978;90;21507;-85
2024/04/10 19:53:38;;;;;;;17.30;5.10;;;;;;;14.42;70.79;101058.61;1442816;90;21485;-83
2024/04/10 19:56:06;;;;;;;10.27;4.93;;;;;;;14.39;70.95;101059.77;1436098;90;22329;-84
2024/04/10 19:58:34;;;;;;;20.73;5.57;;;;;;;14.36;70.88;101065.91;1439122;90;21464;-84
2024/04/10 20:01:07;;;;;;;18.57;5.77;;;;;;;14.35;70.84;101069.03;1441585;90;21472;-84
2024/04/10 20:03:35;;;;;;;14.90;5.53;;;;;;;14.36;70.79;101062.73;1450017;90;21493;-83
2024/04/10 20:06:04;;;;;;;16.93;5.93;;;;;;;14.37;70.55;101072.39;1437636;91;21442;-85
2024/04/10 20:08:32;;;;;;;21.50;4.90;;;;;;;14.36;70.55;101076.05;1436297;90;21634;-83
2024/04/10 20:11:01;;;;;;;10.20;4.73;;;;;;;14.33;70.58;101073.70;1441030;90;21427;-83
2024/04/10 20:13:29;;;;;;;6.77;4.43;;;;;;;14.34;70.41;101072.70;1438764;90;21661;-82
2024/04/10 20:16:02;;;;;;;9.57;5.03;;;;;;;14.32;70.56;101074.67;1438051;91;21597;-83
2024/04/10 20:18:33;;;;;;;15.73;5.97;;;;;;;14.31;70.58;101077.02;1436037;90;21486;-85
2024/04/10 20:21:09;;;;;;;15.90;5.07;;;;;;;14.30;70.45;101080.67;1441336;91;21486;-83
2024/04/10 20:23:40;;;;;;;15.27;5.37;;;;;;;14.25;70.49;101083.46;1437764;91;21397;-83
2024/04/10 20:26:07;;;;;;;;;;;;;;;14.25;70.47;101081.63;1424476;91;22923;-84
2024/04/10 20:28:35;;;;;;;13.03;5.50;;;;;;;14.20;70.68;101086.58;1437982;90;20513;-83
2024/04/10 20:31:07;;;;;;;15.30;5.60;;;;;;;14.20;70.97;101091.91;1440945;91;21419;-85
2024/04/10 20:33:37;;;;;;;16.93;5.40;;;;;;;14.15;70.83;101091.52;1434827;90;22454;-84
2024/04/10 20:36:07;;;;;;;10.78;6.60;;;;;;;14.16;70.95;101087.39;1439753;90;21640;-83
2024/04/10 20:38:34;;;;;;;13.95;5.58;;;;;;;14.12;71.25;101101.16;1439418;91;21538;-82
2024/04/10 20:41:06;;;;;;;17.47;5.30;;;;;;;14.12;71.27;101106.47;1437025;90;21479;-85
2024/04/10 20:43:35;;;;;;;16.73;5.93;;;;;;;14.11;71.33;101103.48;1416575;91;21611;-85
2024/04/10 20:46:06;;;;;;;10.23;5.10;;;;;;;14.08;71.34;101097.97;1441496;91;21419;-85
2024/04/10 20:48:35;;;;;;;9.80;5.80;;;;;;;14.08;71.27;101099.80;1436356;91;21552;-84
2024/04/10 20:51:13;;;;;;;13.07;5.50;;;;;;;14.07;71.37;101099.44;1432065;91;21685;-84
2024/04/10 20:53:44;;;;;;;10.40;6.00;;;;;;;14.09;71.68;101108.11;1431730;90;21478;-85
2024/04/10 20:56:19;;;;;;;7.45;5.58;;;;;;;14.08;71.28;101103.80;1441855;90;21685;-84
2024/04/10 20:58:47;;;;;;;13.07;5.47;;;;;;;14.05;71.80;101110.76;1432205;91;21689;-82
2024/04/10 21:01:17;;;;;;;11.67;5.57;;;;;;;13.99;72.01;101106.38;1430882;91;22381;-79
2024/04/10 21:03:47;;;;;;;13.62;6.83;;;;;;;13.99;72.04;101107.71;1437299;90;21420;-79
2024/04/10 22:12:21;;;;;;;14.97;6.33;;;;;;;13.31;74.68;101175.15;1429195;90;21493;-81
2024/04/10 22:14:51;;;;;;;14.43;5.30;;;;;;;13.25;74.92;101179.70;1437564;90;21419;-79
2024/04/10 22:25:28;;;;;;;12.30;5.30;;;;;;;13.16;75.07;101195.20;1432326;90;22512;-78
2024/04/10 22:27:56;;;;;;;14.30;5.43;;;;;;;13.15;75.14;101194.83;1439911;91;21626;-79
2024/04/10 22:30:25;;;;;;;10.93;5.67;;;;;;;13.10;75.46;101191.30;1437683;91;21493;-80
2024/04/10 22:32:52;;;;;;;23.10;5.40;;;;;;;13.06;75.58;101204.05;1434319;90;22550;-79
2024/04/10 22:35:19;;;;;;;18.27;5.43;;;;;;;13.02;75.69;101198.66;1437572;90;21566;-79
2024/04/10 22:37:46;;;;;;;11.10;5.63;;;;;;;13.03;75.67;101216.77;1442167;91;21545;-77
2024/04/10 22:40:15;;;;;;;13.80;5.47;;;;;;;13.00;75.66;101204.59;1435933;90;21530;-79
2024/04/10 22:42:42;;;;;;;16.30;5.30;;;;;;;12.98;75.73;101213.23;1433817;91;22484;-78
2024/04/10 22:45:10;;;;;;;8.57;5.40;;;;;;;12.94;75.82;101206.51;1418763;90;21485;-80
2024/04/10 22:47:38;;;;;;;10.23;4.53;;;;;;;12.94;76.02;101217.63;1437668;90;22568;-79
2024/04/10 22:50:06;;;;;;;12.37;4.17;;;;;;;12.91;76.14;101212.61;1438609;90;21486;-79
2024/04/10 22:52:33;;;;;;;8.87;5.00;;;;;;;12.88;76.25;101215.89;1436742;90;21697;-80
2024/04/10 22:55:00;;;;;;;11.33;5.20;;;;;;;12.88;76.22;101221.20;1439324;90;21516;-80
2024/04/10 22:57:27;;;;;;;12.50;4.70;;;;;;;12.86;76.45;101227.66;1440854;91;21944;-79
2024/04/10 22:59:55;;;;;;;19.73;4.83;;;;;;;12.85;76.71;101220.66;1439962;90;22423;-80
2024/04/10 23:02:23;;;;;;;10.50;4.67;;;;;;;12.81;76.99;101219.28;1436635;91;21530;-79
2024/04/10 23:04:51;;;;;;;12.23;4.50;;;;;;;12.81;76.67;101221.94;1438664;90;21478;-78
2024/04/10 23:07:18;;;;;;;9.40;4.10;;;;;;;12.81;76.48;101219.28;1442527;90;22439;-79
2024/04/10 23:09:45;;;;;;;12.23;5.63;;;;;;;12.73;77.04;101225.79;1437297;91;21478;-79
2024/04/10 23:12:12;;;;;;;17.37;5.30;;;;;;;12.75;77.18;101233.14;1443579;90;21669;-80
2024/04/10 23:14:39;;;;;;;12.17;4.73;;;;;;;12.74;77.12;101239.41;1440901;91;21449;-79
2024/04/10 23:17:06;;;;;;;14.90;4.40;;;;;;;12.72;77.35;101237.41;1436086;90;21472;-79
2024/04/10 23:19:34;;;;;;;9.80;4.67;;;;;;;12.65;77.80;101235.29;1421891;91;21591;-79
2024/04/10 23:22:01;;;;;;;10.17;4.23;;;;;;;12.64;77.85;101242.92;1442092;91;22359;-79
2024/04/10 23:24:28;;;;;;;12.93;5.00;;;;;;;12.58;78.02;101230.21;1442533;90;21493;-78
2024/04/10 23:26:55;;;;;;;9.43;3.93;;;;;;;12.62;77.77;101239.55;1431952;91;22469;-79
2024/04/10 23:29:22;;;;;;;14.67;4.40;;;;;;;12.57;78.22;101236.97;1438940;90;21464;-79
2024/04/10 23:31:51;;;;;;;8.57;5.47;;;;;;;12.58;77.99;101236.02;1441415;91;21522;-79
2024/04/10 23:34:18;;;;;;;13.83;4.97;;;;;;;12.56;78.32;101236.14;1434878;91;21537;-79
2024/04/10 23:36:46;;;;;;;8.13;4.47;;;;;;;12.53;78.74;101237.75;1436157;90;21486;-79
2024/04/10 23:39:13;;;;;;;18.03;6.03;;;;;;;12.54;78.25;101242.56;1421712;91;21478;-80
2024/04/10 23:41:40;;;;;;;10.07;4.97;;;;;;;12.53;78.37;101249.70;1438549;90;21455;-80
2024/04/10 23:44:07;;;;;;;17.97;6.30;;;;;;;12.50;78.54;101251.31;1440890;91;21419;-78
2024/04/10 23:46:34;;;;;;;17.03;4.87;;;;;;;12.47;78.66;101252.92;1432330;90;21575;-80
2024/04/10 23:49:01;;;;;;;9.67;5.33;;;;;;;12.47;78.86;101252.92;1433630;90;21612;-81
2024/04/10 23:51:28;;;;;;;13.00;4.93;;;;;;;12.46;78.75;101245.95;1437873;91;22380;-80
2024/04/10 23:53:55;;;;;;;12.57;4.93;;;;;;;12.42;78.99;101250.67;1444913;90;21456;-79
2024/04/10 23:56:23;;;;;;;12.37;4.93;;;;;;;12.42;78.95;101253.33;1433363;90;21464;-79
2024/04/10 23:58:50;;;;;;;11.17;5.80;;;;;;;12.46;78.69;101245.08;1430307;91;21507;-80
